Time;durP1;ratioP1;P1;durP2;ratioP2;P2;SDS_P1;SDS_P2;PMS_P1;PMS_P2;Temp;Humidity;BMP_temperature;BMP_pressure;BME280_temperature;BME280_humidity;BME280_pressure;Samples;Min_cycle;Max_cycle;Signal;HPM_P1;HPM_P2
2023/10/27 00:02:22;;;;;;;8.60;4.60;;;;;;;10.88;100.00;99351.66;4997538;28;102580;-27
2023/10/27 00:04:47;;;;;;;8.20;4.60;;;;;;;10.85;100.00;99346.53;4998013;28;97267;-27
2023/10/27 00:07:12;;;;;;;6.05;3.80;;;;;;;10.85;100.00;99346.53;4997943;28;96752;-27
2023/10/27 00:09:38;;;;;;;6.10;3.78;;;;;;;10.84;100.00;99347.50;4998620;28;96835;-27
2023/10/27 00:12:05;;;;;;;7.82;4.30;;;;;;;10.83;100.00;99349.34;4997379;28;99193;-27
2023/10/27 00:14:30;;;;;;;8.95;4.28;;;;;;;10.82;100.00;99341.34;4997140;28;98760;-27
2023/10/27 00:16:56;;;;;;;9.18;4.85;;;;;;;10.81;100.00;99335.06;4997499;28;96686;-27
2023/10/27 00:19:21;;;;;;;7.18;4.13;;;;;;;10.89;100.00;99344.38;4997890;28;96766;-27
2023/10/27 00:21:46;;;;;;;8.52;4.53;;;;;;;10.89;100.00;99339.81;4995789;28;102180;-27
2023/10/27 00:24:12;;;;;;;10.60;4.65;;;;;;;10.81;100.00;99331.50;4996755;28;99193;-27
2023/10/27 00:26:37;;;;;;;7.68;4.28;;;;;;;10.84;100.00;99331.25;4997707;28;96484;-27
2023/10/27 00:29:03;;;;;;;6.57;3.63;;;;;;;10.83;100.00;99329.53;4997677;28;96766;-27
2023/10/27 00:31:28;;;;;;;8.30;4.30;;;;;;;10.81;100.00;99326.94;4997319;28;97410;-27
2023/10/27 00:33:53;;;;;;;8.40;4.65;;;;;;;10.85;100.00;99324.84;4997652;28;98047;-27
2023/10/27 00:36:18;;;;;;;8.55;4.65;;;;;;;10.87;100.00;99325.56;4997435;28;96524;-27
2023/10/27 00:38:47;;;;;;;10.93;5.50;;;;;;;10.84;100.00;99312.28;4997278;28;96679;-27
2023/10/27 00:41:13;;;;;;;11.35;4.85;;;;;;;10.90;100.00;99324.44;4996408;28;97461;-28
2023/10/27 00:43:38;;;;;;;8.82;4.57;;;;;;;10.93;100.00;99327.72;4996789;28;98958;-27
2023/10/27 00:46:04;;;;;;;7.90;4.03;;;;;;;10.86;100.00;99317.56;4997068;28;96845;-27
2023/10/27 00:48:30;;;;;;;8.65;4.13;;;;;;;10.90;100.00;99321.75;4995992;28;96749;-27
2023/10/27 00:50:55;;;;;;;7.90;4.53;;;;;;;10.86;100.00;99320.28;4995596;28;100857;-27
2023/10/27 00:53:21;;;;;;;8.25;3.63;;;;;;;10.87;100.00;99321.97;4996648;28;98741;-28
2023/10/27 00:55:48;;;;;;;10.52;3.92;;;;;;;10.81;100.00;99308.00;4996001;28;96897;-27
2023/10/27 00:58:15;;;;;;;6.63;4.07;;;;;;;10.87;100.00;99314.75;4997687;28;96717;-27
2023/10/27 01:00:41;;;;;;;7.35;4.25;;;;;;;10.90;100.00;99311.75;4995375;28;101195;-27
2023/10/27 01:03:06;;;;;;;7.30;3.65;;;;;;;10.86;100.00;99294.03;4995268;28;101035;-27
2023/10/27 01:05:32;;;;;;;6.03;3.38;;;;;;;10.86;100.00;99298.63;4996860;28;96523;-27
2023/10/27 01:07:58;;;;;;;8.20;4.25;;;;;;;10.92;100.00;99308.94;4997205;28;96850;-27
2023/10/27 01:23:50;;;;;;;7.60;2.97;;;;;;;10.82;100.00;99289.88;4999154;28;96991;-27
2023/10/27 01:26:15;;;;;;;7.50;3.50;;;;;;;10.87;100.00;99293.06;5000452;28;97736;-28
2023/10/27 01:28:41;;;;;;;8.77;3.83;;;;;;;10.91;100.00;99299.91;5000505;28;96518;-27
2023/10/27 01:31:06;;;;;;;8.95;3.95;;;;;;;10.91;100.00;99294.50;5000499;28;96811;-29
2023/10/27 01:33:32;;;;;;;7.97;3.40;;;;;;;10.87;100.00;99286.78;4999433;28;97421;-27
2023/10/27 01:35:58;;;;;;;7.63;3.75;;;;;;;10.86;100.00;99283.22;4999844;28;96521;-27
2023/10/27 01:38:23;;;;;;;6.65;3.50;;;;;;;10.85;100.00;99284.22;5000485;28;96503;-28
2023/10/27 01:40:48;;;;;;;6.60;3.05;;;;;;;10.87;100.00;99293.06;5000172;28;96886;-27
2023/10/27 01:43:14;;;;;;;10.65;4.00;;;;;;;10.89;100.00;99287.50;4999522;28;98866;-28
2023/10/27 01:45:39;;;;;;;9.23;3.33;;;;;;;10.86;100.00;99296.75;4999708;28;97212;-27
2023/10/27 01:48:04;;;;;;;7.45;2.92;;;;;;;10.84;100.00;99282.47;4999629;28;96851;-27
2023/10/27 01:50:30;;;;;;;6.13;3.35;;;;;;;10.84;100.00;99287.91;5000619;28;96793;-27
2023/10/27 01:52:55;;;;;;;8.40;3.88;;;;;;;10.84;100.00;99277.94;4999576;28;99471;-27
2023/10/27 01:55:21;;;;;;;6.57;3.35;;;;;;;10.90;100.00;99289.22;4999709;28;97775;-27
2023/10/27 01:57:46;;;;;;;7.32;3.50;;;;;;;10.88;100.00;99283.09;4999078;28;96832;-28
2023/10/27 02:00:12;;;;;;;5.43;3.15;;;;;;;10.87;100.00;99290.38;4999782;28;96866;-26
2023/10/27 02:02:38;;;;;;;5.78;3.03;;;;;;;10.89;100.00;99285.63;4997917;28;100965;-28
2023/10/27 02:05:03;;;;;;;5.45;3.00;;;;;;;10.88;100.00;99280.38;4999165;28;99248;-27
2023/10/27 02:07:29;;;;;;;10.52;4.00;;;;;;;10.88;100.00;99275.81;4999923;28;96608;-26
2023/10/27 02:09:59;;;;;;;7.35;3.55;;;;;;;10.89;100.00;99277.50;5000132;28;96847;-27
2023/10/27 02:12:25;;;;;;;10.82;3.10;;;;;;;10.90;100.00;99275.69;4999276;28;97921;-28
2023/10/27 02:14:50;;;;;;;8.85;3.35;;;;;;;10.91;100.00;99278.25;4998182;28;100741;-28
2023/10/27 02:17:15;;;;;;;8.68;3.25;;;;;;;10.89;100.00;99269.38;4999483;28;96506;-27
2023/10/27 02:19:41;;;;;;;5.80;3.15;;;;;;;10.89;100.00;99268.53;4999318;28;96941;-27
2023/10/27 02:22:06;;;;;;;6.90;3.38;;;;;;;10.91;100.00;99271.97;4998768;28;97924;-27
2023/10/27 02:24:31;;;;;;;5.45;2.92;;;;;;;10.95;100.00;99273.44;4999213;28;97348;-27
2023/10/27 02:26:58;;;;;;;6.30;3.13;;;;;;;10.92;100.00;99268.28;4999538;28;96633;-27
2023/10/27 02:29:23;;;;;;;4.95;2.85;;;;;;;10.90;100.00;99265.69;4998189;28;96803;-27
2023/10/27 02:31:49;;;;;;;8.88;3.30;;;;;;;10.94;100.00;99275.28;4998778;28;98819;-27
2023/10/27 02:34:14;;;;;;;7.47;3.72;;;;;;;10.96;100.00;99278.69;4998933;28;99098;-27
2023/10/27 02:36:39;;;;;;;7.45;3.20;;;;;;;10.97;100.00;99280.41;4999467;28;96615;-27
2023/10/27 02:39:05;;;;;;;7.57;3.22;;;;;;;10.91;100.00;99272.81;4999808;28;96780;-27
2023/10/27 02:41:30;;;;;;;6.10;2.80;;;;;;;10.89;100.00;99269.38;4999132;28;97422;-28
2023/10/27 02:43:58;;;;;;;9.02;2.50;;;;;;;10.89;100.00;99266.69;4998357;28;99172;-27
2023/10/27 02:46:23;;;;;;;3.63;2.33;;;;;;;10.88;100.00;99267.69;4996721;28;96740;-27
2023/10/27 02:48:50;;;;;;;3.88;2.28;;;;;;;10.92;100.00;99274.56;4999261;28;96683;-27
2023/10/27 02:51:17;;;;;;;4.70;2.35;;;;;;;10.91;100.00;99259.28;4997231;28;101268;-29
2023/10/27 02:53:42;;;;;;;6.40;2.33;;;;;;;10.92;100.00;99252.03;4998527;28;99304;-27
2023/10/27 02:56:09;;;;;;;4.75;2.38;;;;;;;10.97;100.00;99255.19;4998669;28;96608;-27
2023/10/27 02:58:35;;;;;;;4.90;2.47;;;;;;;10.97;100.00;99258.75;4997630;28;96832;-27
2023/10/27 03:01:06;;;;;;;4.35;1.98;;;;;;;10.99;100.00;99261.34;4997046;28;101453;-27
2023/10/27 03:03:32;;;;;;;4.95;2.50;;;;;;;11.00;100.00;99255.75;4999160;28;98009;-27
2023/10/27 03:05:58;;;;;;;4.85;2.92;;;;;;;10.99;100.00;99254.06;4998963;28;96479;-27
2023/10/27 03:08:23;;;;;;;4.28;2.28;;;;;;;10.95;100.00;99247.19;4998893;28;96733;-27
2023/10/27 03:10:48;;;;;;;3.80;2.17;;;;;;;10.97;100.00;99256.03;4997660;28;99219;-27
2023/10/27 03:13:14;;;;;;;4.60;2.75;;;;;;;10.96;100.00;99251.59;4998404;28;97741;-27
2023/10/27 03:15:39;;;;;;;4.93;2.10;;;;;;;11.00;100.00;99255.75;4998803;28;96451;-27
2023/10/27 03:18:05;;;;;;;4.22;2.35;;;;;;;11.00;100.00;99261.19;4998601;28;96934;-28
2023/10/27 03:20:30;;;;;;;3.40;1.92;;;;;;;11.01;100.00;99262.03;4998174;28;99490;-27
2023/10/27 03:22:55;;;;;;;3.85;2.35;;;;;;;10.94;100.00;99244.59;4998405;28;99255;-27
2023/10/27 03:25:20;;;;;;;4.72;2.58;;;;;;;11.03;100.00;99263.59;4998545;28;96473;-29
2023/10/27 03:27:46;;;;;;;4.78;2.20;;;;;;;11.03;100.00;99262.75;4998910;28;96957;-27
2023/10/27 03:30:12;;;;;;;3.58;1.98;;;;;;;11.00;100.00;99255.75;4998084;28;98452;-28
2023/10/27 03:32:37;;;;;;;5.07;2.55;;;;;;;11.05;100.00;99263.47;4995664;28;102211;-27
2023/10/27 03:35:03;;;;;;;4.40;2.35;;;;;;;10.99;100.00;99248.63;4998139;28;96524;-27
2023/10/27 03:37:28;;;;;;;4.63;2.60;;;;;;;11.04;100.00;99253.66;4980470;28;96647;-27
2023/10/27 03:39:54;;;;;;;5.47;3.15;;;;;;;11.02;100.00;99251.06;4997839;28;99609;-27
2023/10/27 03:42:19;;;;;;;5.10;2.28;;;;;;;11.05;100.00;99258.91;4997801;28;98952;-27
2023/10/27 03:44:44;;;;;;;4.05;2.33;;;;;;;11.03;100.00;99250.06;4998308;28;96610;-27
2023/10/27 03:47:10;;;;;;;9.60;2.33;;;;;;;11.06;100.00;99254.38;4995980;28;96905;-27
2023/10/27 03:49:35;;;;;;;6.15;2.35;;;;;;;11.08;100.00;99259.63;4997662;28;98799;-28
2023/10/27 03:52:00;;;;;;;5.57;2.50;;;;;;;11.07;100.00;99266.91;4998038;28;98626;-29
2023/10/27 03:54:27;;;;;;;4.13;2.58;;;;;;;11.03;100.00;99244.63;4998105;28;96587;-27
2023/10/27 03:56:52;;;;;;;5.05;2.63;;;;;;;11.10;100.00;99257.66;4998046;28;96812;-29
2023/10/27 03:59:19;;;;;;;4.55;2.60;;;;;;;11.09;100.00;99253.25;4997228;28;97971;-27
2023/10/27 04:01:45;;;;;;;9.48;2.65;;;;;;;11.08;100.00;99254.22;4997451;28;99666;-27
2023/10/27 04:04:11;;;;;;;5.38;2.67;;;;;;;11.07;100.00;99247.94;4997997;28;96616;-28
2023/10/27 04:06:36;;;;;;;7.90;2.53;;;;;;;11.06;100.00;99243.53;4998142;28;96767;-29
2023/10/27 04:09:02;;;;;;;3.60;2.20;;;;;;;11.08;100.00;99244.22;4997527;28;97544;-27
2023/10/27 04:11:28;;;;;;;4.00;2.33;;;;;;;11.10;100.00;99249.53;4997199;28;99385;-28
2023/10/27 04:13:53;;;;;;;3.75;2.10;;;;;;;11.05;100.00;99242.66;4997826;28;96772;-27
2023/10/27 04:16:19;;;;;;;4.47;2.55;;;;;;;11.07;100.00;99247.94;4998181;28;96840;-27
2023/10/27 04:18:44;;;;;;;3.70;2.40;;;;;;;11.10;100.00;99254.94;4997587;28;97922;-27
2023/10/27 04:21:10;;;;;;;6.80;2.72;;;;;;;11.07;100.00;99258.78;4995929;28;100654;-27
2023/10/27 04:23:36;;;;;;;4.07;1.92;;;;;;;11.11;100.00;99251.22;4997321;28;96547;-28
2023/10/27 04:26:01;;;;;;;6.28;3.17;;;;;;;11.08;100.00;99246.09;4998054;28;96857;-27
2023/10/27 04:28:27;;;;;;;4.53;2.35;;;;;;;11.04;100.00;99240.09;4997212;28;97524;-28
2023/10/27 04:30:53;;;;;;;5.38;2.42;;;;;;;11.09;100.00;99253.25;4997612;28;97183;-27
2023/10/27 04:33:19;;;;;;;4.05;2.05;;;;;;;11.05;100.00;99245.34;4996192;28;96694;-27
2023/10/27 04:35:45;;;;;;;3.72;2.22;;;;;;;11.10;100.00;99252.22;4997629;28;96740;-27
2023/10/27 04:38:10;;;;;;;4.70;2.38;;;;;;;11.09;100.00;99248.66;4997304;28;97450;-27
2023/10/27 04:40:36;;;;;;;3.30;2.28;;;;;;;11.09;100.00;99250.53;4997260;28;97357;-27
2023/10/27 04:43:03;;;;;;;4.55;2.75;;;;;;;11.09;100.00;99254.09;4997484;28;96516;-27
2023/10/27 04:45:28;;;;;;;4.38;2.40;;;;;;;11.06;100.00;99251.66;4997453;28;97321;-28
2023/10/27 04:47:54;;;;;;;4.40;2.35;;;;;;;11.09;100.00;99255.94;4995931;28;99138;-27
2023/10/27 04:50:20;;;;;;;3.22;1.90;;;;;;;11.08;100.00;99252.34;4996973;28;97745;-27
2023/10/27 04:52:45;;;;;;;4.38;2.42;;;;;;;11.10;100.00;99254.94;4997580;28;96644;-28
2023/10/27 04:55:11;;;;;;;3.95;2.45;;;;;;;11.07;100.00;99249.81;4997131;28;96911;-27
2023/10/27 04:57:36;;;;;;;5.70;2.92;;;;;;;11.10;100.00;99250.38;4996766;28;97923;-28
2023/10/27 05:00:08;;;;;;;3.22;2.03;;;;;;;11.10;100.00;99258.50;4996670;28;99536;-27
2023/10/27 05:02:33;;;;;;;8.85;2.85;;;;;;;11.05;100.00;99253.50;4997176;28;96476;-28
2023/10/27 05:04:58;;;;;;;4.38;2.25;;;;;;;11.10;100.00;99249.53;4997968;28;96775;-29
2023/10/27 05:07:24;;;;;;;3.97;2.25;;;;;;;11.09;100.00;99259.50;4996378;28;99722;-28
2023/10/27 05:09:51;;;;;;;4.63;2.75;;;;;;;11.08;100.00;99249.66;4996444;28;99560;-28
2023/10/27 05:12:16;;;;;;;3.95;2.45;;;;;;;11.04;100.00;99243.66;4995260;28;97467;-27
2023/10/27 05:14:42;;;;;;;4.35;2.30;;;;;;;11.08;100.00;99249.66;4997120;28;96821;-27
2023/10/27 05:17:08;;;;;;;5.22;2.95;;;;;;;11.09;100.00;99253.25;4997054;28;97504;-27
2023/10/27 05:19:34;;;;;;;5.68;2.67;;;;;;;11.09;100.00;99256.78;4996822;28;97809;-27
2023/10/27 05:22:02;;;;;;;3.95;2.30;;;;;;;11.06;100.00;99246.25;4995788;28;96497;-28
2023/10/27 05:24:27;;;;;;;3.20;1.90;;;;;;;11.11;100.00;99259.34;4996836;28;96826;-27
2023/10/27 05:26:53;;;;;;;4.20;2.58;;;;;;;11.04;100.00;99246.38;4996362;28;98806;-27
2023/10/27 05:29:18;;;;;;;3.58;2.20;;;;;;;11.05;100.00;99245.34;4996532;28;99154;-27
2023/10/27 05:31:44;;;;;;;4.20;2.20;;;;;;;11.04;100.00;99251.78;4997148;28;96492;-27
2023/10/27 05:34:09;;;;;;;3.95;2.42;;;;;;;11.07;100.00;99250.66;4997099;28;96813;-27
2023/10/27 05:36:35;;;;;;;3.08;1.90;;;;;;;11.03;100.00;99249.19;4995699;28;98776;-27
2023/10/27 05:39:00;;;;;;;8.10;2.78;;;;;;;11.05;100.00;99252.63;4996493;28;97958;-27
2023/10/27 05:41:26;;;;;;;4.72;2.85;;;;;;;11.05;100.00;99249.94;4996963;28;96678;-26
2023/10/27 05:43:51;;;;;;;4.43;2.60;;;;;;;11.07;100.00;99256.06;4996733;28;96983;-27
2023/10/27 05:46:18;;;;;;;5.05;2.58;;;;;;;11.02;100.00;99251.06;4995479;28;99241;-28
2023/10/27 05:48:43;;;;;;;3.72;2.42;;;;;;;11.04;100.00;99243.66;4994890;28;98613;-27
2023/10/27 05:51:09;;;;;;;3.97;2.60;;;;;;;11.03;100.00;99243.78;4996972;28;96484;-27
2023/10/27 05:53:34;;;;;;;4.30;2.13;;;;;;;11.08;100.00;99248.78;4996757;28;96957;-27
2023/10/27 05:55:59;;;;;;;4.40;2.42;;;;;;;11.08;100.00;99251.50;4998949;28;99869;-27
2023/10/27 05:58:25;;;;;;;3.30;2.20;;;;;;;11.03;100.00;99244.63;4999715;28;97380;-27
2023/10/27 06:00:50;;;;;;;5.47;2.08;;;;;;;11.04;100.00;99240.94;4999554;28;96604;-27
2023/10/27 06:03:16;;;;;;;4.15;2.35;;;;;;;11.09;100.00;99247.81;4999760;28;96849;-27
2023/10/27 06:05:41;;;;;;;4.10;2.53;;;;;;;11.09;100.00;99248.66;4997891;28;101492;-27
2023/10/27 06:08:07;;;;;;;3.58;2.25;;;;;;;11.05;100.00;99239.09;4999050;28;97727;-27
2023/10/27 06:10:32;;;;;;;6.45;3.05;;;;;;;11.05;100.00;99242.66;4999988;28;96501;-27
2023/10/27 06:12:57;;;;;;;3.60;2.35;;;;;;;11.04;100.00;99243.66;4999993;28;96803;-27
2023/10/27 06:15:23;;;;;;;4.65;2.25;;;;;;;11.07;100.00;99247.94;4999447;28;97900;-27
2023/10/27 06:17:49;;;;;;;6.18;2.97;;;;;;;11.04;100.00;99250.94;5000032;28;96982;-27
2023/10/27 06:20:15;;;;;;;3.58;2.60;;;;;;;11.04;100.00;99248.22;4998172;28;96623;-27
2023/10/27 06:22:42;;;;;;;3.92;2.33;;;;;;;11.05;100.00;99247.22;4999581;28;96928;-27
2023/10/27 06:25:09;;;;;;;5.75;2.10;;;;;;;11.01;100.00;99246.66;4998561;28;98008;-27
2023/10/27 06:27:37;;;;;;;4.13;2.60;;;;;;;10.98;100.00;99236.06;4998929;28;99562;-27
2023/10/27 06:30:03;;;;;;;4.18;2.75;;;;;;;11.03;100.00;99249.19;4998120;28;96563;-28
2023/10/27 06:32:28;;;;;;;5.82;2.15;;;;;;;10.97;100.00;99237.06;4998185;28;96823;-28
2023/10/27 06:34:54;;;;;;;4.55;2.55;;;;;;;10.98;100.00;99246.91;4998873;28;99982;-28
2023/10/27 06:37:19;;;;;;;4.78;2.63;;;;;;;11.00;100.00;99252.19;4998986;28;99295;-27
2023/10/27 06:39:44;;;;;;;5.05;2.83;;;;;;;11.01;100.00;99253.91;4999796;28;96555;-26
2023/10/27 06:42:10;;;;;;;7.10;3.17;;;;;;;10.99;100.00;99251.34;4999896;28;96846;-27
2023/10/27 06:44:35;;;;;;;7.78;2.72;;;;;;;10.98;100.00;99260.44;4998610;28;99346;-27
2023/10/27 06:47:00;;;;;;;6.30;2.83;;;;;;;11.00;100.00;99261.19;4997660;28;106010;-27
2023/10/27 06:49:26;;;;;;;4.18;2.22;;;;;;;11.05;100.00;99263.47;4998459;28;96572;-27
2023/10/27 06:51:51;;;;;;;4.25;2.38;;;;;;;11.01;100.00;99251.19;4999122;28;96859;-28
2023/10/27 06:54:17;;;;;;;4.30;2.50;;;;;;;11.08;100.00;99265.91;4998861;28;97349;-27
2023/10/27 06:56:43;;;;;;;5.47;2.22;;;;;;;11.09;100.00;99264.06;4998409;28;99172;-28
2023/10/27 06:59:08;;;;;;;4.78;2.38;;;;;;;11.07;100.00;99274.19;4999326;28;96452;-27
2023/10/27 07:01:33;;;;;;;3.08;2.10;;;;;;;11.07;100.00;99266.91;4999303;28;96853;-27
2023/10/27 07:03:59;;;;;;;6.63;2.83;;;;;;;11.08;100.00;99274.03;4998513;28;103385;-27
2023/10/27 07:06:25;;;;;;;4.07;2.80;;;;;;;11.04;100.00;99270.75;4998807;28;97865;-27
2023/10/27 07:08:50;;;;;;;7.13;3.10;;;;;;;11.08;100.00;99274.03;4997548;28;96779;-27
2023/10/27 07:11:15;;;;;;;4.85;2.60;;;;;;;11.08;100.00;99273.19;4999298;28;96737;-28
2023/10/27 07:13:41;;;;;;;4.13;2.47;;;;;;;11.06;100.00;99278.75;4997567;28;102461;-27
2023/10/27 07:16:06;;;;;;;4.90;2.40;;;;;;;11.02;100.00;99275.44;4998341;28;98867;-27
2023/10/27 07:18:32;;;;;;;4.40;2.78;;;;;;;11.05;100.00;99280.59;4998695;28;96795;-27
2023/10/27 07:20:57;;;;;;;3.58;2.25;;;;;;;11.05;100.00;99285.16;4998263;28;96521;-27
2023/10/27 07:23:23;;;;;;;4.40;2.60;;;;;;;11.03;100.00;99276.28;4998443;28;97863;-27
2023/10/27 07:25:49;;;;;;;3.97;2.45;;;;;;;11.07;100.00;99287.75;4996648;28;100763;-27
2023/10/27 07:28:14;;;;;;;3.63;2.28;;;;;;;11.05;100.00;99283.28;4997183;28;96776;-27
2023/10/27 07:30:40;;;;;;;4.80;2.80;;;;;;;11.04;100.00;99283.44;4998748;28;96815;-27
2023/10/27 07:33:05;;;;;;;4.82;2.92;;;;;;;11.07;100.00;99291.31;4998109;28;97494;-28
2023/10/27 07:35:34;;;;;;;4.97;2.67;;;;;;;11.02;100.00;99280.88;4997870;28;97732;-27
2023/10/27 07:37:59;;;;;;;4.80;2.95;;;;;;;11.06;100.00;99286.88;4996452;28;96644;-28
2023/10/27 07:40:25;;;;;;;5.15;2.75;;;;;;;11.10;100.00;99295.59;4998530;28;96720;-28
2023/10/27 07:42:51;;;;;;;4.57;2.75;;;;;;;11.06;100.00;99292.31;4997759;28;98803;-27
2023/10/27 07:45:16;;;;;;;5.93;2.65;;;;;;;11.05;100.00;99291.41;4996691;28;97960;-27
2023/10/27 07:47:41;;;;;;;4.70;2.58;;;;;;;11.10;100.00;99309.13;4997936;28;97054;-28
2023/10/27 07:50:07;;;;;;;4.53;2.78;;;;;;;11.10;100.00;99303.72;4998220;28;96781;-27
2023/10/27 07:52:33;;;;;;;4.45;2.50;;;;;;;11.05;100.00;99293.28;4997589;28;100053;-27
2023/10/27 07:54:59;;;;;;;6.90;3.10;;;;;;;11.11;100.00;99305.41;4997897;28;99194;-27
2023/10/27 07:57:25;;;;;;;3.90;1.95;;;;;;;11.10;100.00;99306.44;4996448;28;96732;-27
2023/10/27 07:59:51;;;;;;;6.70;3.38;;;;;;;11.12;100.00;99307.16;4996706;28;96844;-27
2023/10/27 08:02:16;;;;;;;3.95;2.78;;;;;;;11.13;100.00;99308.84;4997466;28;97372;-27
2023/10/27 08:04:41;;;;;;;4.07;2.95;;;;;;;11.10;100.00;99298.28;4997648;28;97457;-27
2023/10/27 08:07:07;;;;;;;5.25;2.80;;;;;;;11.12;100.00;99307.16;4998185;28;96618;-27
2023/10/27 08:09:32;;;;;;;5.45;3.47;;;;;;;11.11;100.00;99305.41;4998032;28;96793;-27
2023/10/27 08:11:57;;;;;;;5.10;3.03;;;;;;;11.14;100.00;99310.59;4997666;28;97868;-27
2023/10/27 08:14:23;;;;;;;5.03;3.58;;;;;;;11.16;100.00;99308.59;4997653;28;97761;-27
2023/10/27 08:16:49;;;;;;;5.50;3.55;;;;;;;11.16;100.00;99316.72;4997260;28;96602;-29
2023/10/27 08:19:14;;;;;;;4.40;2.70;;;;;;;11.18;100.00;99314.75;4998010;28;96956;-27
2023/10/27 08:21:40;;;;;;;4.30;2.75;;;;;;;11.17;100.00;99310.31;4997537;28;97450;-27
2023/10/27 08:24:06;;;;;;;4.70;2.60;;;;;;;11.16;100.00;99314.03;4995910;28;100945;-27
2023/10/27 08:26:32;;;;;;;3.28;1.90;;;;;;;11.16;100.00;99308.59;4997372;28;96723;-28
2023/10/27 08:28:58;;;;;;;4.95;2.08;;;;;;;11.19;100.00;99325.44;4997781;28;96745;-27
2023/10/27 08:31:23;;;;;;;3.30;1.95;;;;;;;11.16;100.00;99317.59;4997044;28;99516;-27
2023/10/27 08:33:48;;;;;;;3.65;2.10;;;;;;;11.21;100.00;99322.59;4997102;28;97831;-27
2023/10/27 08:36:15;;;;;;;4.53;2.58;;;;;;;11.23;100.00;99320.63;4997449;28;96489;-27
2023/10/27 08:38:40;;;;;;;3.33;1.77;;;;;;;11.20;100.00;99320.88;4997572;28;96844;-27
2023/10/27 08:41:07;;;;;;;3.85;2.25;;;;;;;11.22;100.00;99325.16;4996952;28;99059;-27
2023/10/27 08:43:34;;;;;;;3.78;1.75;;;;;;;11.23;100.00;99324.19;4995922;28;100806;-27
2023/10/27 08:46:03;;;;;;;4.25;2.00;;;;;;;11.24;100.00;99325.03;4995663;28;96705;-27
2023/10/27 08:48:29;;;;;;;2.90;1.80;;;;;;;11.23;100.00;99320.63;4997110;28;96739;-27
2023/10/27 08:50:55;;;;;;;3.42;2.08;;;;;;;11.21;100.00;99320.75;4996521;28;98400;-27
2023/10/27 08:53:20;;;;;;;3.33;1.60;;;;;;;11.23;100.00;99307.06;4997078;28;98072;-27
2023/10/27 08:55:49;;;;;;;2.50;1.58;;;;;;;11.28;100.00;99312.94;4997321;28;96814;-27
2023/10/27 08:58:14;;;;;;;3.55;2.08;;;;;;;11.29;100.00;99327.31;4996045;28;96929;-28
2023/10/27 09:00:39;;;;;;;2.88;1.58;;;;;;;11.27;100.00;99316.63;4997189;28;98053;-27
2023/10/27 09:03:17;;;;;;;2.92;1.70;;;;;;;11.27;100.00;99317.50;4996893;28;98830;-28
2023/10/27 09:05:44;;;;;;;2.78;1.70;;;;;;;11.26;100.00;99312.19;4995944;28;97000;-27
2023/10/27 09:08:10;;;;;;;2.53;1.52;;;;;;;11.25;100.00;99313.22;4996067;28;96805;-27
2023/10/27 09:10:36;;;;;;;4.75;1.58;;;;;;;11.27;100.00;99316.63;4995380;28;101048;-27
2023/10/27 09:13:04;;;;;;;2.78;1.63;;;;;;;11.27;100.00;99313.91;4995402;28;101616;-27
2023/10/27 09:15:45;;;;;;;2.30;1.50;;;;;;;11.27;100.00;99319.31;4995041;28;96700;-27
2023/10/27 09:18:11;;;;;;;2.28;1.35;;;;;;;11.23;100.00;99317.91;4996888;28;96867;-27
2023/10/27 09:20:51;;;;;;;2.90;2.00;;;;;;;11.22;100.00;99321.59;4978652;28;101434;-27
2023/10/27 09:23:18;;;;;;;1.88;1.40;;;;;;;11.22;100.00;99325.16;4996367;28;99304;-27
2023/10/27 09:25:44;;;;;;;3.75;1.70;;;;;;;11.29;100.00;99336.31;4995567;28;96619;-27
2023/10/27 09:28:11;;;;;;;3.30;1.92;;;;;;;11.31;100.00;99328.06;4996651;28;96841;-27
2023/10/27 09:30:43;;;;;;;4.20;2.10;;;;;;;11.35;100.00;99332.22;4998937;28;99479;-27
2023/10/27 09:33:18;;;;;;;3.42;1.90;;;;;;;11.33;100.00;99326.91;4998877;28;100936;-27
2023/10/27 09:35:48;;;;;;;3.15;1.80;;;;;;;11.39;100.00;99330.94;4999070;28;96805;-27
2023/10/27 09:38:14;;;;;;;2.70;1.85;;;;;;;11.32;100.00;99316.19;5000605;28;96503;-34
2023/10/27 09:40:41;;;;;;;3.25;1.95;;;;;;;11.32;100.00;99318.91;4997818;28;100997;-27
2023/10/27 09:43:17;;;;;;;3.78;2.40;;;;;;;11.33;100.00;99332.34;4998483;28;100653;-27
2023/10/27 09:45:53;;;;;;;4.22;2.22;;;;;;;11.37;100.00;99332.91;4998978;28;96669;-27
2023/10/27 09:48:24;;;;;;;3.10;1.65;;;;;;;11.37;100.00;99333.78;4998666;28;96993;-27
2023/10/27 09:50:58;;;;;;;2.78;1.77;;;;;;;11.39;100.00;99328.22;4998201;28;99111;-27
2023/10/27 09:53:26;;;;;;;2.53;1.55;;;;;;;11.36;100.00;99332.06;4998312;28;100944;-29
2023/10/27 09:55:52;;;;;;;3.30;2.00;;;;;;;11.39;100.00;99329.09;4998588;28;96862;-27
2023/10/27 09:58:20;;;;;;;3.72;1.92;;;;;;;11.37;100.00;99328.38;4998931;28;96934;-28
2023/10/27 10:00:46;;;;;;;4.85;2.13;;;;;;;11.38;100.00;99327.38;4998148;28;101285;-28
2023/10/27 10:03:11;;;;;;;3.75;1.75;;;;;;;11.42;100.00;99331.53;4999200;28;98926;-27
2023/10/27 10:06:09;;;;;;;4.55;2.20;;;;;;;11.44;100.00;99336.78;4999650;28;96685;-27
2023/10/27 10:08:35;;;;;;;2.70;1.42;;;;;;;11.38;100.00;99319.22;4993784;28;96830;-27
2023/10/27 10:11:18;;;;;;;1.88;1.33;;;;;;;11.41;100.00;99329.78;4998964;28;104204;-27
2023/10/27 10:13:44;;;;;;;2.55;1.55;;;;;;;11.44;100.00;99326.81;4997829;28;98876;-27
2023/10/27 10:16:11;;;;;;;3.75;1.83;;;;;;;11.51;100.00;99351.50;4998384;28;96524;-27
2023/10/27 10:18:36;;;;;;;1.60;0.95;;;;;;;11.51;100.00;99356.09;4999892;28;96800;-27
2023/10/27 10:21:02;;;;;;;1.05;0.68;;;;;;;11.37;100.00;99344.63;4999322;28;97462;-27
2023/10/27 10:23:37;;;;;;;1.77;0.93;;;;;;;11.41;100.00;99348.78;4999576;28;97976;-27
2023/10/27 10:26:02;;;;;;;0.82;0.40;;;;;;;11.41;100.00;99351.47;4999636;28;96614;-27
2023/10/27 10:28:29;;;;;;;1.08;0.73;;;;;;;11.39;100.00;99344.47;4999542;28;98127;-29
2023/10/27 10:31:07;;;;;;;1.15;0.47;;;;;;;11.41;100.00;99350.63;4997144;28;100998;-28
2023/10/27 10:33:34;;;;;;;0.85;0.57;;;;;;;11.43;100.00;99344.06;4998948;28;99236;-27
2023/10/27 10:36:15;;;;;;;1.40;0.47;;;;;;;11.42;100.00;99347.78;4998075;28;96663;-28
2023/10/27 10:38:43;;;;;;;0.45;0.25;;;;;;;11.43;100.00;99340.50;4998008;28;96872;-27
2023/10/27 10:41:09;;;;;;;2.22;0.47;;;;;;;11.52;100.00;99341.53;4997209;28;100710;-27
2023/10/27 10:43:38;;;;;;;2.38;0.77;;;;;;;11.58;100.00;99341.84;4998976;28;97793;-27
2023/10/27 10:46:06;;;;;;;4.43;0.80;;;;;;;11.63;100.00;99333.28;4997473;28;97085;-28
2023/10/27 10:48:36;;;;;;;0.63;0.50;;;;;;;11.68;100.00;99337.31;4999515;28;96760;-27
2023/10/27 10:51:16;;;;;;;0.80;0.50;;;;;;;11.66;100.00;99331.16;4997335;28;101080;-27
2023/10/27 10:53:43;;;;;;;0.57;0.40;;;;;;;11.67;100.00;99332.88;4998614;28;99654;-27
2023/10/27 10:56:09;;;;;;;2.17;0.82;;;;;;;11.63;100.00;99336.00;4997246;28;96711;-28
2023/10/27 10:58:40;;;;;;;1.38;0.93;;;;;;;11.63;100.00;99334.16;4997727;28;96854;-27
2023/10/27 11:01:15;;;;;;;0.93;0.70;;;;;;;11.59;100.00;99330.00;4997357;28;101396;-28
2023/10/27 11:03:46;;;;;;;1.35;0.80;;;;;;;11.58;100.00;99322.00;4997228;28;101485;-29
2023/10/27 11:06:11;;;;;;;1.80;0.50;;;;;;;11.56;100.00;99318.56;4997739;28;96734;-27
2023/10/27 11:08:39;;;;;;;1.88;1.13;;;;;;;11.57;100.00;99332.00;4999194;28;96871;-27
2023/10/27 11:11:13;;;;;;;1.35;0.88;;;;;;;11.56;100.00;99323.97;4998436;28;98027;-27
2023/10/27 11:13:41;;;;;;;4.00;1.23;;;;;;;11.56;100.00;99326.69;4998691;28;99812;-28
2023/10/27 11:16:18;;;;;;;0.90;0.65;;;;;;;11.59;100.00;99323.72;4997346;28;96564;-28
2023/10/27 11:18:45;;;;;;;1.38;1.08;;;;;;;11.62;100.00;99326.16;4997622;28;96692;-27
2023/10/27 11:21:18;;;;;;;3.83;1.23;;;;;;;11.60;100.00;99333.56;4996301;28;101034;-27
2023/10/27 11:23:44;;;;;;;2.70;1.25;;;;;;;11.59;100.00;99329.16;4997232;28;101307;-27
2023/10/27 11:26:10;;;;;;;5.22;2.83;;;;;;;11.56;100.00;99322.16;4997626;28;96547;-27
2023/10/27 11:28:37;;;;;;;3.58;2.08;;;;;;;11.56;100.00;99315.84;4998603;28;96833;-27
2023/10/27 11:31:15;;;;;;;3.97;2.03;;;;;;;11.64;100.00;99330.44;4996596;28;101259;-28
2023/10/27 11:33:58;;;;;;;2.85;1.98;;;;;;;11.64;100.00;99326.88;4997941;28;99373;-27
2023/10/27 11:36:28;;;;;;;3.65;1.63;;;;;;;11.58;100.00;99319.28;4997081;28;96593;-27